createdAt,value
2019-04-16T00:00:12.075Z,46.17
2019-04-16T00:02:45.105Z,46.00
2019-04-16T00:05:18.118Z,46.66
2019-04-16T00:07:47.103Z,46.17
2019-04-16T00:10:14.518Z,46.15
2019-04-16T00:12:44.957Z,46.27
2019-04-16T00:15:12.394Z,46.22
2019-04-16T00:17:39.823Z,46.32
2019-04-16T00:20:07.341Z,46.29
2019-04-16T00:22:38.228Z,46.27
2019-04-16T00:25:05.679Z,46.50
2019-04-16T00:27:33.130Z,46.59
2019-04-16T00:30:03.912Z,46.39
2019-04-16T00:32:28.053Z,46.65
2019-04-16T00:34:55.472Z,46.67
2019-04-16T00:37:22.930Z,46.79
2019-04-16T00:39:50.369Z,47.00
2019-04-16T00:42:17.839Z,46.83
2019-04-16T00:44:45.267Z,46.81
2019-04-16T00:47:12.684Z,46.94
2019-04-16T00:49:40.137Z,46.84
2019-04-16T00:52:07.601Z,46.99
2019-04-16T00:54:35.049Z,47.00
2019-04-16T00:57:02.490Z,47.12
2019-04-16T00:59:29.935Z,47.03
2019-04-16T01:01:57.370Z,46.91
2019-04-16T01:04:24.800Z,46.83
2019-04-16T01:06:52.236Z,47.39
2019-04-16T01:09:20.431Z,47.18
2019-04-16T01:11:48.897Z,47.18
2019-04-16T01:14:15.363Z,47.05
2019-04-16T01:16:42.821Z,46.92
2019-04-16T01:19:11.175Z,47.73
2019-04-16T01:21:37.727Z,48.11
2019-04-16T01:24:05.142Z,47.99
2019-04-16T01:26:32.601Z,48.06
2019-04-16T01:29:03.743Z,49.33
2019-04-16T01:31:43.086Z,48.76
2019-04-16T01:34:15.236Z,48.87
2019-04-16T01:36:57.841Z,48.57
2019-04-16T01:39:28.574Z,48.58
2019-04-16T01:41:56.016Z,48.35
2019-04-16T01:44:23.443Z,48.11
2019-04-16T01:46:50.863Z,47.90
2019-04-16T01:49:18.316Z,47.88
2019-04-16T01:51:47.457Z,47.99
2019-04-16T01:54:14.522Z,47.76
2019-04-16T01:56:41.973Z,47.63
2019-04-16T01:59:09.399Z,47.58
2019-04-16T02:01:36.835Z,47.49
2019-04-16T02:04:04.274Z,47.59
2019-04-16T02:06:31.735Z,47.50
2019-04-16T02:09:01.955Z,47.47
2019-04-16T02:11:26.659Z,47.64
2019-04-16T02:13:54.246Z,47.61
2019-04-16T02:16:22.416Z,47.45
2019-04-16T02:18:49.150Z,47.22
2019-04-16T02:21:16.560Z,47.39
2019-04-16T02:23:45.382Z,47.56
2019-04-16T02:26:11.497Z,47.53
2019-04-16T02:28:38.942Z,47.67
2019-04-16T02:31:13.909Z,47.63
2019-04-16T02:33:33.880Z,47.48
2019-04-16T02:36:01.327Z,47.75
2019-04-16T02:38:28.758Z,47.64
2019-04-16T02:40:56.217Z,47.93
2019-04-16T02:43:23.705Z,48.08
2019-04-16T02:45:56.483Z,47.95
2019-04-16T02:48:18.731Z,47.85
2019-04-16T02:50:46.908Z,47.94
2019-04-16T02:53:24.154Z,47.83
2019-04-16T02:55:53.002Z,48.13
2019-04-16T02:58:20.617Z,47.98
2019-04-16T03:00:50.807Z,48.76
2019-04-16T03:03:19.286Z,48.27
2019-04-16T03:05:46.723Z,48.50
2019-04-16T03:08:14.335Z,48.29
2019-04-16T03:10:41.764Z,48.56
2019-04-16T03:13:09.315Z,48.58
2019-04-16T03:15:39.923Z,48.30
2019-04-16T03:18:07.408Z,48.18
2019-04-16T03:20:34.841Z,48.25
2019-04-16T03:23:05.308Z,48.46
2019-04-16T03:25:29.733Z,48.36
2019-04-16T03:27:57.176Z,48.66
2019-04-16T03:30:24.626Z,48.52
2019-04-16T03:32:52.061Z,48.69
2019-04-16T03:35:19.518Z,49.26
2019-04-16T03:37:46.967Z,49.47
2019-04-16T03:40:17.120Z,49.32
2019-04-16T03:42:41.859Z,49.21
2019-04-16T03:45:09.950Z,49.08
2019-04-16T03:47:36.796Z,48.98
2019-04-16T03:50:05.138Z,49.13
2019-04-16T03:52:32.600Z,48.92
2019-04-16T03:55:00.066Z,48.99
2019-04-16T03:57:27.533Z,49.24
2019-04-16T03:59:54.971Z,49.36
2019-04-16T04:02:23.094Z,49.40
2019-04-16T04:04:50.736Z,49.34
2019-04-16T04:07:18.190Z,49.50
2019-04-16T04:09:45.632Z,49.55
2019-04-16T04:12:14.183Z,49.78
2019-04-16T04:14:40.566Z,49.84
2019-04-16T04:17:08.013Z,49.71
2019-04-16T04:19:35.456Z,49.92
2019-04-16T04:22:02.880Z,49.91
2019-04-16T04:24:31.358Z,50.10
2019-04-16T04:26:57.807Z,50.19
2019-04-16T04:29:25.240Z,50.09
2019-04-16T04:31:52.698Z,50.21
2019-04-16T04:34:20.791Z,50.27
2019-04-16T04:36:48.268Z,50.25
2019-04-16T04:39:16.009Z,50.27
2019-04-16T04:41:43.170Z,50.32
2019-04-16T04:44:10.608Z,50.38
2019-04-16T04:46:38.058Z,50.31
2019-04-16T04:49:05.505Z,50.41
2019-04-16T04:51:33.415Z,50.47
2019-04-16T04:54:01.053Z,50.63
2019-04-16T04:56:28.682Z,50.59
2019-04-16T04:58:55.948Z,50.73
2019-04-16T05:01:23.382Z,50.75
2019-04-16T05:04:06.587Z,50.79
2019-04-16T05:06:36.802Z,50.88
2019-04-16T05:09:04.303Z,50.82
2019-04-16T05:11:31.742Z,50.83
2019-04-16T05:13:59.160Z,50.86
2019-04-16T05:16:26.626Z,50.85
2019-04-16T05:18:54.065Z,51.32
2019-04-16T05:21:21.514Z,51.07
2019-04-16T05:23:48.959Z,51.00
2019-04-16T05:26:16.473Z,51.01
2019-04-16T05:28:45.486Z,51.66
2019-04-16T05:31:11.348Z,51.63
2019-04-16T05:33:38.827Z,51.73
2019-04-16T05:36:06.332Z,51.84
2019-04-16T05:38:33.769Z,51.99
2019-04-16T05:41:12.454Z,52.06
2019-04-16T05:43:30.256Z,52.12
2019-04-16T05:45:57.001Z,52.13
2019-04-16T05:48:24.517Z,52.76
2019-04-16T05:50:51.971Z,53.17
2019-04-16T05:53:19.441Z,53.41
2019-04-16T05:55:52.437Z,53.60
2019-04-16T05:58:19.925Z,53.87
2019-04-16T06:00:50.883Z,53.73
2019-04-16T06:03:21.839Z,53.51
2019-04-16T06:05:45.786Z,53.64
2019-04-16T06:08:13.700Z,53.80
2019-04-16T06:10:41.129Z,53.83
2019-04-16T06:13:24.245Z,54.03
2019-04-16T06:15:52.982Z,54.31
2019-04-16T06:18:25.176Z,54.37
2019-04-16T06:20:53.771Z,54.20
2019-04-16T06:23:24.323Z,54.30
2019-04-16T06:25:51.773Z,54.37
2019-04-16T06:28:23.044Z,54.47
2019-04-16T06:30:51.472Z,54.38
2019-04-16T06:33:20.511Z,54.33
2019-04-16T06:35:53.834Z,54.01
2019-04-16T06:38:27.719Z,54.04
2019-04-16T06:40:56.993Z,54.57
2019-04-16T06:43:29.517Z,55.08
2019-04-16T06:46:05.491Z,55.16
2019-04-16T06:48:33.825Z,55.57
2019-04-16T06:51:11.633Z,55.76
2019-04-16T06:53:35.179Z,56.07
2019-04-16T06:56:08.786Z,56.09
2019-04-16T06:58:50.841Z,56.42
2019-04-16T07:01:23.115Z,55.95
2019-04-16T07:03:51.478Z,55.96
2019-04-16T07:06:38.604Z,55.20
2019-04-16T07:09:26.451Z,54.81
2019-04-16T07:11:54.909Z,54.76
2019-04-16T07:14:21.592Z,54.63
2019-04-16T07:16:48.725Z,54.45
2019-04-16T07:19:17.385Z,54.40
2019-04-16T07:21:48.652Z,54.56
2019-04-16T07:24:11.120Z,54.58
2019-04-16T07:26:39.798Z,54.52
2019-04-16T07:29:06.134Z,54.72
2019-04-16T07:31:35.436Z,54.07
2019-04-16T07:34:08.523Z,54.57
2019-04-16T07:36:40.801Z,54.54
2019-04-16T07:39:29.754Z,54.84
2019-04-16T07:42:07.852Z,54.67
2019-04-16T07:44:21.668Z,54.78
2019-04-16T07:47:03.979Z,54.57
2019-04-16T07:49:32.226Z,54.69
2019-04-16T07:52:07.264Z,54.13
2019-04-16T07:54:35.628Z,54.38
2019-04-16T07:57:03.069Z,53.56
2019-04-16T07:59:32.241Z,54.07
2019-04-16T08:01:57.993Z,54.35
2019-04-16T08:04:29.071Z,53.97
2019-04-16T08:06:52.916Z,53.60
2019-04-16T08:09:21.214Z,51.75
2019-04-16T08:11:48.673Z,52.88
2019-04-16T08:14:16.134Z,51.41
2019-04-16T08:16:47.589Z,50.97
2019-04-16T08:19:12.154Z,51.97
2019-04-16T08:21:40.620Z,52.10
2019-04-16T08:24:06.353Z,52.65
2019-04-16T08:26:33.818Z,52.54
2019-04-16T08:29:01.270Z,52.11
2019-04-16T08:31:28.703Z,50.96
2019-04-16T08:33:56.162Z,51.03
2019-04-16T08:36:23.613Z,51.35
2019-04-16T08:38:51.287Z,51.34
2019-04-16T08:41:21.362Z,52.30
2019-04-16T08:43:46.224Z,51.98
2019-04-16T08:46:13.686Z,52.26
2019-04-16T08:48:41.115Z,52.44
2019-04-16T08:51:08.576Z,51.72
2019-04-16T08:53:35.999Z,51.61
2019-04-16T08:56:03.467Z,52.09
2019-04-16T08:58:30.915Z,51.89
2019-04-16T09:00:59.846Z,52.15
2019-04-16T09:03:30.119Z,52.10
2019-04-16T09:05:54.742Z,52.28
2019-04-16T09:08:25.019Z,52.22
2019-04-16T09:10:52.464Z,51.88
2019-04-16T09:13:20.143Z,51.09
2019-04-16T09:15:47.616Z,50.66
2019-04-16T09:18:17.473Z,51.12
2019-04-16T09:20:44.929Z,51.35
2019-04-16T09:23:12.372Z,51.59
2019-04-16T09:25:42.441Z,51.41
2019-04-16T09:28:24.486Z,51.11
2019-04-16T09:30:43.290Z,52.02
2019-04-16T09:33:10.755Z,51.24
2019-04-16T09:35:40.511Z,50.99
2019-04-16T09:38:24.675Z,51.25
2019-04-16T09:41:07.959Z,50.69
2019-04-16T09:43:44.915Z,49.42
2019-04-16T09:46:21.173Z,49.86
2019-04-16T09:48:39.826Z,49.70
2019-04-16T09:51:07.268Z,49.59
2019-04-16T09:53:40.036Z,49.76
2019-04-16T09:56:22.154Z,48.71
2019-04-16T09:58:44.517Z,48.08
2019-04-16T10:01:11.965Z,48.66
2019-04-16T10:03:39.433Z,46.62
2019-04-16T10:06:06.863Z,48.20
2019-04-16T10:08:34.341Z,48.36
2019-04-16T10:11:05.841Z,46.77
2019-04-16T10:13:31.805Z,44.97
2019-04-16T10:15:56.829Z,45.48
2019-04-16T10:18:24.280Z,46.12
2019-04-16T10:20:51.759Z,48.18
2019-04-16T10:23:19.231Z,45.21
2019-04-16T10:25:46.691Z,44.55
2019-04-16T10:28:14.150Z,48.14
2019-04-16T10:30:42.100Z,46.83
2019-04-16T10:33:09.529Z,46.84
2019-04-16T10:35:37.033Z,47.54
2019-04-16T10:38:06.584Z,46.86
2019-04-16T10:40:36.934Z,45.57
2019-04-16T10:43:21.207Z,41.63
2019-04-16T10:45:54.298Z,39.66
2019-04-16T10:48:37.717Z,40.31
2019-04-16T10:51:15.167Z,39.38
2019-04-16T10:53:50.969Z,37.72
2019-04-16T10:56:23.986Z,38.52
2019-04-16T10:58:53.312Z,39.17
2019-04-16T11:01:29.897Z,36.12
2019-04-16T11:03:56.452Z,35.82
2019-04-16T11:06:37.096Z,36.27
2019-04-16T11:09:04.664Z,35.65
2019-04-16T11:11:32.115Z,34.33
2019-04-16T11:14:00.680Z,37.20
2019-04-16T11:16:27.778Z,37.42
2019-04-16T11:18:55.466Z,37.30
2019-04-16T11:21:22.859Z,37.60
2019-04-16T11:23:50.295Z,37.12
2019-04-16T11:26:17.723Z,38.27
2019-04-16T11:28:45.164Z,37.03
2019-04-16T11:31:13.087Z,37.85
2019-04-16T11:33:40.551Z,38.37
2019-04-16T11:36:18.619Z,33.30
2019-04-16T11:38:35.463Z,34.60
2019-04-16T11:41:02.905Z,39.18
2019-04-16T11:43:30.395Z,35.38
2019-04-16T11:45:57.946Z,36.72
2019-04-16T11:48:26.491Z,37.31
2019-04-16T11:50:54.027Z,36.32
2019-04-16T11:53:22.205Z,37.31
2019-04-16T11:55:49.699Z,37.28
2019-04-16T11:58:32.880Z,37.15
2019-04-16T12:01:03.865Z,36.43
2019-04-16T12:03:46.030Z,36.62
2019-04-16T12:06:27.837Z,36.14
2019-04-16T12:09:01.523Z,34.30
2019-04-16T12:11:29.727Z,34.80
2019-04-16T12:13:59.165Z,35.17
2019-04-16T12:16:26.954Z,35.51
2019-04-16T12:19:09.281Z,36.56
2019-04-16T12:21:51.645Z,35.59
2019-04-16T12:24:29.838Z,36.06
2019-04-16T12:26:58.684Z,37.41
2019-04-16T12:29:29.035Z,36.66
2019-04-16T12:32:11.468Z,35.10
2019-04-16T12:34:52.779Z,34.99
2019-04-16T12:37:37.358Z,36.47
2019-04-16T12:40:04.417Z,33.35
2019-04-16T12:42:32.314Z,33.13
2019-04-16T12:45:00.435Z,34.08
2019-04-16T12:47:28.402Z,34.32
2019-04-16T12:49:58.374Z,35.27
2019-04-16T12:52:27.483Z,35.35
2019-04-16T12:55:15.692Z,35.77
2019-04-16T12:57:46.923Z,35.75
2019-04-16T13:00:15.489Z,35.94
2019-04-16T13:02:48.376Z,35.33
2019-04-16T13:05:21.829Z,35.84
2019-04-16T13:07:52.393Z,34.00
2019-04-16T13:10:23.260Z,33.64
2019-04-16T13:12:56.381Z,34.47
2019-04-16T13:15:24.772Z,34.23
2019-04-16T13:17:56.970Z,34.41
2019-04-16T13:20:30.216Z,32.75
2019-04-16T13:23:02.309Z,33.76
2019-04-16T13:25:34.393Z,35.05
2019-04-16T13:28:01.893Z,33.94
2019-04-16T13:30:29.333Z,34.00
2019-04-16T13:32:56.785Z,33.46
2019-04-16T13:35:24.293Z,32.58
2019-04-16T13:37:51.746Z,31.96
2019-04-16T13:40:19.250Z,32.51
2019-04-16T13:42:46.697Z,32.35
2019-04-16T13:45:21.828Z,32.32
2019-04-16T13:47:45.544Z,32.61
2019-04-16T13:50:15.016Z,30.65
2019-04-16T13:52:42.446Z,31.35
2019-04-16T13:55:15.579Z,32.63
2019-04-16T13:57:46.846Z,32.79
2019-04-16T14:00:19.376Z,34.33
2019-04-16T14:02:47.835Z,32.55
2019-04-16T14:05:14.341Z,31.22
2019-04-16T14:07:41.820Z,28.59
2019-04-16T14:10:09.481Z,31.25
2019-04-16T14:12:42.290Z,30.65
2019-04-16T14:15:06.644Z,32.39
2019-04-16T14:17:34.893Z,32.39
2019-04-16T14:19:59.681Z,31.68
2019-04-16T14:22:27.466Z,31.11
2019-04-16T14:24:55.900Z,32.24
2019-04-16T14:27:24.111Z,29.15
2019-04-16T14:29:51.914Z,30.09
2019-04-16T14:32:19.375Z,30.95
2019-04-16T14:34:46.824Z,32.77
2019-04-16T14:37:14.278Z,33.20
2019-04-16T14:39:41.739Z,33.44
2019-04-16T14:42:10.830Z,33.17
2019-04-16T14:44:38.724Z,31.51
2019-04-16T14:47:06.192Z,31.42
2019-04-16T14:49:33.766Z,32.65
2019-04-16T14:52:02.255Z,33.12
2019-04-16T14:54:33.125Z,32.97
2019-04-16T14:57:01.578Z,34.05
2019-04-16T14:59:35.223Z,33.00
2019-04-16T15:01:58.378Z,32.34
2019-04-16T15:04:27.459Z,32.51
2019-04-16T15:07:09.862Z,33.77
2019-04-16T15:09:39.149Z,34.55
2019-04-16T15:12:22.707Z,33.57
2019-04-16T15:15:03.821Z,32.64
2019-04-16T15:17:36.799Z,34.75
2019-04-16T15:20:20.046Z,34.22
2019-04-16T15:22:48.399Z,34.15
2019-04-16T15:25:19.766Z,35.81
2019-04-16T15:27:49.548Z,34.20
2019-04-16T15:30:16.560Z,34.49
2019-04-16T15:33:05.546Z,34.23
2019-04-16T15:35:27.710Z,33.67
2019-04-16T15:38:00.657Z,34.47
2019-04-16T15:40:29.914Z,34.15
2019-04-16T15:42:57.440Z,34.48
2019-04-16T15:45:30.376Z,33.99
2019-04-16T15:48:05.233Z,32.94
2019-04-16T15:50:35.754Z,32.55
2019-04-16T15:53:00.921Z,34.06
2019-04-16T15:55:30.714Z,34.35
2019-04-16T15:58:13.098Z,36.02
2019-04-16T16:00:57.334Z,35.53
2019-04-16T16:03:41.534Z,35.55
2019-04-16T16:06:08.989Z,35.10
2019-04-16T16:08:38.018Z,35.94
2019-04-16T16:11:05.873Z,35.24
2019-04-16T16:13:33.023Z,36.98
2019-04-16T16:16:00.487Z,36.34
2019-04-16T16:18:27.955Z,35.80
2019-04-16T16:20:55.396Z,35.93
2019-04-16T16:23:22.893Z,37.07
2019-04-16T16:25:50.362Z,36.92
2019-04-16T16:28:17.802Z,36.35
2019-04-16T16:30:45.270Z,37.26
2019-04-16T16:33:12.688Z,37.39
2019-04-16T16:35:56.412Z,37.40
2019-04-16T16:38:11.166Z,37.13
2019-04-16T16:40:36.176Z,37.80
2019-04-16T16:43:06.818Z,38.11
2019-04-16T16:45:31.450Z,37.78
2019-04-16T16:47:58.899Z,37.80
2019-04-16T16:50:26.338Z,38.32
2019-04-16T16:52:57.182Z,38.17
2019-04-16T16:55:28.964Z,38.59
2019-04-16T16:58:02.233Z,38.35
2019-04-16T17:00:35.617Z,38.45
2019-04-16T17:03:08.418Z,37.79
2019-04-16T17:05:33.717Z,38.60
2019-04-16T17:08:01.191Z,38.49
2019-04-16T17:10:28.611Z,38.13
2019-04-16T17:12:56.051Z,38.20
2019-04-16T17:15:23.548Z,39.35
2019-04-16T17:17:50.970Z,38.67
2019-04-16T17:20:18.400Z,38.02
2019-04-16T17:22:45.835Z,39.16
2019-04-16T17:25:13.278Z,39.12
2019-04-16T17:27:51.185Z,39.52
2019-04-16T17:30:08.161Z,39.45
2019-04-16T17:32:35.620Z,39.04
2019-04-16T17:35:06.386Z,39.96
2019-04-16T17:37:30.533Z,39.97
2019-04-16T17:39:59.026Z,41.60
2019-04-16T17:42:28.292Z,41.57
2019-04-16T17:45:11.352Z,40.45
2019-04-16T17:47:44.396Z,42.40
2019-04-16T17:50:14.381Z,45.92
2019-04-16T17:52:43.646Z,48.35
2019-04-16T17:55:11.533Z,48.80
2019-04-16T17:57:42.928Z,50.23
2019-04-16T18:00:14.293Z,51.04
2019-04-16T18:02:54.670Z,51.88
2019-04-16T18:05:31.782Z,51.98
2019-04-16T18:08:01.345Z,52.99
2019-04-16T18:10:41.194Z,53.45
2019-04-16T18:13:08.621Z,54.81
2019-04-16T18:15:42.536Z,55.04
2019-04-16T18:18:18.938Z,54.01
2019-04-16T18:20:57.456Z,54.85
2019-04-16T18:23:18.694Z,55.31
2019-04-16T18:25:56.702Z,55.61
2019-04-16T18:28:19.594Z,55.97
2019-04-16T18:30:48.137Z,55.75
2019-04-16T18:33:19.109Z,55.83
2019-04-16T18:36:02.468Z,55.62
2019-04-16T18:38:43.773Z,56.22
2019-04-16T18:41:11.227Z,55.40
2019-04-16T18:43:44.249Z,54.94
2019-04-16T18:46:15.027Z,55.05
2019-04-16T18:48:44.573Z,54.64
2019-04-16T18:51:07.390Z,54.70
2019-04-16T18:53:34.873Z,54.58
2019-04-16T18:56:02.297Z,54.17
2019-04-16T18:58:30.638Z,53.59
2019-04-16T19:00:58.089Z,53.94
2019-04-16T19:03:25.516Z,54.06
2019-04-16T19:05:52.964Z,54.13
2019-04-16T19:08:20.405Z,55.06
2019-04-16T19:10:47.840Z,55.06
2019-04-16T19:13:15.279Z,54.99
2019-04-16T19:15:42.738Z,55.14
2019-04-16T19:18:19.182Z,56.54
2019-04-16T19:20:37.676Z,56.94
2019-04-16T19:23:05.275Z,56.82
2019-04-16T19:25:32.579Z,57.14
2019-04-16T19:28:04.861Z,57.45
2019-04-16T19:30:27.469Z,57.63
2019-04-16T19:33:00.258Z,56.44
2019-04-16T19:35:22.815Z,56.58
2019-04-16T19:37:49.778Z,56.61
2019-04-16T19:40:19.011Z,56.54
2019-04-16T19:42:46.245Z,56.78
2019-04-16T19:45:13.686Z,56.56
2019-04-16T19:47:41.145Z,56.64
2019-04-16T19:50:08.587Z,56.72
2019-04-16T19:52:36.038Z,57.51
2019-04-16T19:55:03.474Z,57.13
2019-04-16T19:57:31.925Z,57.51
2019-04-16T19:59:59.516Z,57.81
2019-04-16T20:02:26.839Z,57.64
2019-04-16T20:04:54.284Z,57.70
2019-04-16T20:07:21.706Z,58.22
2019-04-16T20:09:49.133Z,59.32
2019-04-16T20:12:16.565Z,58.42
2019-04-16T20:14:44.032Z,58.34
2019-04-16T20:17:11.450Z,57.71
2019-04-16T20:19:44.426Z,57.83
2019-04-16T20:22:11.834Z,57.67
2019-04-16T20:24:39.871Z,57.94
2019-04-16T20:27:07.388Z,59.11
2019-04-16T20:29:34.860Z,59.03
2019-04-16T20:32:02.566Z,59.07
2019-04-16T20:34:29.998Z,58.48
2019-04-16T20:36:57.450Z,58.45
2019-04-16T20:39:24.886Z,57.51
2019-04-16T20:41:53.126Z,58.16
2019-04-16T20:44:19.810Z,57.25
2019-04-16T20:46:47.244Z,57.04
2019-04-16T20:49:16.844Z,56.46
2019-04-16T20:51:42.140Z,56.73
2019-04-16T20:54:12.240Z,56.33
2019-04-16T20:56:40.396Z,56.22
2019-04-16T20:59:05.662Z,56.41
2019-04-16T21:01:35.482Z,57.00
2019-04-16T21:04:05.037Z,56.92
2019-04-16T21:06:26.860Z,58.23
2019-04-16T21:08:57.057Z,57.46
2019-04-16T21:11:21.744Z,57.76
2019-04-16T21:13:50.133Z,58.09
2019-04-16T21:16:16.681Z,58.12
2019-04-16T21:18:44.110Z,56.97
2019-04-16T21:21:11.551Z,56.88
2019-04-16T21:23:38.966Z,57.29
2019-04-16T21:26:06.425Z,57.49
2019-04-16T21:28:35.693Z,57.13
2019-04-16T21:31:03.700Z,56.81
2019-04-16T21:33:31.981Z,56.55
2019-04-16T21:36:03.049Z,56.63
2019-04-16T21:38:29.529Z,56.37
2019-04-16T21:40:57.421Z,56.74
2019-04-16T21:43:24.394Z,56.65
2019-04-16T21:45:51.810Z,56.78
2019-04-16T21:48:19.272Z,56.60
2019-04-16T21:50:47.555Z,57.06
2019-04-16T21:53:14.231Z,57.32
2019-04-16T21:55:41.669Z,57.55
2019-04-16T21:58:09.099Z,58.15
2019-04-16T22:00:51.399Z,59.02
2019-04-16T22:03:20.746Z,58.58
2019-04-16T22:05:48.999Z,58.14
2019-04-16T22:08:15.663Z,57.81
2019-04-16T22:10:46.473Z,57.96
2019-04-16T22:13:10.579Z,57.91
2019-04-16T22:15:38.005Z,59.44
2019-04-16T22:18:08.797Z,60.19
2019-04-16T22:20:35.735Z,59.97
2019-04-16T22:23:02.728Z,59.65
2019-04-16T22:25:29.922Z,59.38
2019-04-16T22:27:57.356Z,60.85
2019-04-16T22:30:24.802Z,60.92
2019-04-16T22:32:52.231Z,60.54
2019-04-16T22:35:19.662Z,59.76
2019-04-16T22:37:47.093Z,59.60
2019-04-16T22:40:22.786Z,59.78
2019-04-16T22:43:06.587Z,59.87
2019-04-16T22:45:31.869Z,61.23
2019-04-16T22:47:59.302Z,60.39
2019-04-16T22:50:26.738Z,59.78
2019-04-16T22:52:54.187Z,58.79
2019-04-16T22:55:24.364Z,59.01
2019-04-16T22:57:49.084Z,57.99
2019-04-16T23:00:31.421Z,58.43
2019-04-16T23:02:58.858Z,60.90
2019-04-16T23:05:27.764Z,60.44
2019-04-16T23:07:53.747Z,60.64
2019-04-16T23:10:21.898Z,60.44
2019-04-16T23:12:48.637Z,60.42
2019-04-16T23:15:16.398Z,60.55
2019-04-16T23:17:46.185Z,60.43
2019-04-16T23:20:11.334Z,60.37
2019-04-16T23:22:38.746Z,60.96
2019-04-16T23:25:06.169Z,60.28
2019-04-16T23:27:37.169Z,60.26
2019-04-16T23:30:01.026Z,60.22
2019-04-16T23:32:28.867Z,60.24
2019-04-16T23:34:55.933Z,60.75
2019-04-16T23:37:24.063Z,60.67
2019-04-16T23:39:50.843Z,60.12
2019-04-16T23:42:19.082Z,59.48
2019-04-16T23:44:48.165Z,58.70
2019-04-16T23:47:19.461Z,58.39
2019-04-16T23:49:47.784Z,58.10
2019-04-16T23:52:17.581Z,58.15
2019-04-16T23:54:54.087Z,57.77
2019-04-16T23:57:21.638Z,58.21
